Airport ID:KN38
Update Time (UTC):30/03/2020 05:28
Wind Speed (Knots):6
Wind Direction (Magnetic):210
Temperature (°C):8
Dew Point (°C):5
Humidity (%):81
Altimeter (inHg):29.84
Density Altitude (Feet):
Visibility (Miles):10+
Clouds (Hundreds of feet):CLR
Present Weather:
METAR:METAR KN38 300525Z AUTO 20007KT 10SM CLR 08/05 A2984 RMK AO2

The data displayed is for advisory purposes only and is not to be used for flight planning or operations.

This page is not automatically refreshed. Reload the page to see current data.